sensor_id;sensor_type;location;lat;lon;timestamp;P1;durP1;ratioP1;P2;durP2;ratioP2
21721;SDS011;11023;48.274;7.794;2023-09-08T00:01:55;4.88;;;3.25;;
21721;SDS011;11023;48.274;7.794;2023-09-08T00:04:21;6.35;;;3.65;;
21721;SDS011;11023;48.274;7.794;2023-09-08T00:06:47;7.07;;;3.53;;
21721;SDS011;11023;48.274;7.794;2023-09-08T00:09:13;6.50;;;3.65;;
21721;SDS011;11023;48.274;7.794;2023-09-08T00:11:39;9.20;;;3.30;;
21721;SDS011;11023;48.274;7.794;2023-09-08T00:14:05;5.57;;;3.05;;
21721;SDS011;11023;48.274;7.794;2023-09-08T00:16:30;4.18;;;3.03;;
21721;SDS011;11023;48.274;7.794;2023-09-08T00:18:56;5.32;;;3.35;;
21721;SDS011;11023;48.274;7.794;2023-09-08T00:21:25;5.15;;;3.33;;
21721;SDS011;11023;48.274;7.794;2023-09-08T00:23:51;5.32;;;3.40;;
21721;SDS011;11023;48.274;7.794;2023-09-08T00:26:17;8.65;;;4.68;;
21721;SDS011;11023;48.274;7.794;2023-09-08T00:28:43;7.82;;;4.88;;
21721;SDS011;11023;48.274;7.794;2023-09-08T00:31:09;6.65;;;3.97;;
21721;SDS011;11023;48.274;7.794;2023-09-08T00:33:35;4.63;;;3.45;;
21721;SDS011;11023;48.274;7.794;2023-09-08T00:36:00;6.05;;;3.35;;
21721;SDS011;11023;48.274;7.794;2023-09-08T00:38:26;5.35;;;3.53;;
21721;SDS011;11023;48.274;7.794;2023-09-08T00:40:52;4.32;;;3.08;;
21721;SDS011;11023;48.274;7.794;2023-09-08T00:43:17;6.60;;;3.60;;
21721;SDS011;11023;48.274;7.794;2023-09-08T00:45:43;5.28;;;3.30;;
21721;SDS011;11023;48.274;7.794;2023-09-08T00:48:11;5.60;;;3.70;;
21721;SDS011;11023;48.274;7.794;2023-09-08T00:50:37;7.53;;;3.78;;
21721;SDS011;11023;48.274;7.794;2023-09-08T00:53:04;8.38;;;3.10;;
21721;SDS011;11023;48.274;7.794;2023-09-08T00:55:31;4.82;;;3.50;;
21721;SDS011;11023;48.274;7.794;2023-09-08T00:57:57;5.80;;;3.38;;
21721;SDS011;11023;48.274;7.794;2023-09-08T01:00:24;5.57;;;3.50;;
21721;SDS011;11023;48.274;7.794;2023-09-08T01:02:53;6.53;;;3.72;;
21721;SDS011;11023;48.274;7.794;2023-09-08T01:05:19;4.88;;;3.33;;
21721;SDS011;11023;48.274;7.794;2023-09-08T01:07:45;6.13;;;3.75;;
21721;SDS011;11023;48.274;7.794;2023-09-08T01:10:12;5.43;;;3.33;;
21721;SDS011;11023;48.274;7.794;2023-09-08T01:12:39;5.55;;;3.45;;
21721;SDS011;11023;48.274;7.794;2023-09-08T01:15:05;5.65;;;3.45;;
21721;SDS011;11023;48.274;7.794;2023-09-08T01:17:31;5.93;;;3.88;;
21721;SDS011;11023;48.274;7.794;2023-09-08T01:19:58;7.30;;;4.30;;
21721;SDS011;11023;48.274;7.794;2023-09-08T01:25:29;7.60;;;3.80;;
21721;SDS011;11023;48.274;7.794;2023-09-08T01:27:57;6.55;;;3.72;;
21721;SDS011;11023;48.274;7.794;2023-09-08T01:30:26;8.52;;;4.25;;
21721;SDS011;11023;48.274;7.794;2023-09-08T01:32:54;7.25;;;3.50;;
21721;SDS011;11023;48.274;7.794;2023-09-08T01:35:21;8.38;;;4.60;;
21721;SDS011;11023;48.274;7.794;2023-09-08T01:37:48;7.03;;;4.15;;
21721;SDS011;11023;48.274;7.794;2023-09-08T01:40:14;5.97;;;3.42;;
21721;SDS011;11023;48.274;7.794;2023-09-08T01:42:40;6.88;;;3.95;;
21721;SDS011;11023;48.274;7.794;2023-09-08T01:45:07;4.28;;;3.30;;
21721;SDS011;11023;48.274;7.794;2023-09-08T01:47:33;6.95;;;4.10;;
21721;SDS011;11023;48.274;7.794;2023-09-08T01:50:00;7.10;;;3.65;;
21721;SDS011;11023;48.274;7.794;2023-09-08T01:52:27;7.35;;;3.17;;
21721;SDS011;11023;48.274;7.794;2023-09-08T01:54:52;9.07;;;3.92;;
21721;SDS011;11023;48.274;7.794;2023-09-08T01:57:18;4.97;;;3.63;;
21721;SDS011;11023;48.274;7.794;2023-09-08T01:59:44;6.45;;;3.40;;
21721;SDS011;11023;48.274;7.794;2023-09-08T02:02:10;4.85;;;3.45;;
21721;SDS011;11023;48.274;7.794;2023-09-08T02:04:36;5.20;;;3.03;;
21721;SDS011;11023;48.274;7.794;2023-09-08T02:07:02;7.90;;;3.53;;
21721;SDS011;11023;48.274;7.794;2023-09-08T02:09:35;5.05;;;2.88;;
21721;SDS011;11023;48.274;7.794;2023-09-08T02:12:02;4.95;;;3.40;;
21721;SDS011;11023;48.274;7.794;2023-09-08T02:14:28;4.90;;;3.33;;
21721;SDS011;11023;48.274;7.794;2023-09-08T02:16:54;5.15;;;3.63;;
21721;SDS011;11023;48.274;7.794;2023-09-08T02:19:20;8.77;;;3.22;;
21721;SDS011;11023;48.274;7.794;2023-09-08T02:21:46;4.13;;;3.05;;
21721;SDS011;11023;48.274;7.794;2023-09-08T02:24:12;6.43;;;3.58;;
21721;SDS011;11023;48.274;7.794;2023-09-08T02:26:41;5.68;;;3.38;;
21721;SDS011;11023;48.274;7.794;2023-09-08T02:29:06;5.22;;;3.00;;
21721;SDS011;11023;48.274;7.794;2023-09-08T02:31:32;8.07;;;3.38;;
21721;SDS011;11023;48.274;7.794;2023-09-08T02:33:58;5.38;;;3.58;;
21721;SDS011;11023;48.274;7.794;2023-09-08T02:36:24;7.35;;;3.63;;
21721;SDS011;11023;48.274;7.794;2023-09-08T02:38:54;4.10;;;3.03;;
21721;SDS011;11023;48.274;7.794;2023-09-08T02:41:21;6.97;;;4.07;;
21721;SDS011;11023;48.274;7.794;2023-09-08T02:43:47;5.70;;;3.38;;
21721;SDS011;11023;48.274;7.794;2023-09-08T02:46:13;5.57;;;3.67;;
21721;SDS011;11023;48.274;7.794;2023-09-08T02:48:39;5.32;;;3.28;;
21721;SDS011;11023;48.274;7.794;2023-09-08T02:51:05;6.22;;;3.72;;
21721;SDS011;11023;48.274;7.794;2023-09-08T02:53:31;4.22;;;3.05;;
21721;SDS011;11023;48.274;7.794;2023-09-08T02:55:57;4.07;;;2.92;;
21721;SDS011;11023;48.274;7.794;2023-09-08T02:58:24;6.07;;;3.45;;
21721;SDS011;11023;48.274;7.794;2023-09-08T03:00:50;7.55;;;3.22;;
21721;SDS011;11023;48.274;7.794;2023-09-08T03:03:20;8.05;;;4.30;;
21721;SDS011;11023;48.274;7.794;2023-09-08T03:05:45;6.07;;;3.63;;
21721;SDS011;11023;48.274;7.794;2023-09-08T03:08:11;6.95;;;3.63;;
21721;SDS011;11023;48.274;7.794;2023-09-08T03:10:37;5.32;;;3.55;;
21721;SDS011;11023;48.274;7.794;2023-09-08T03:13:03;5.65;;;3.92;;
21721;SDS011;11023;48.274;7.794;2023-09-08T03:15:29;6.18;;;3.55;;
21721;SDS011;11023;48.274;7.794;2023-09-08T03:17:55;4.93;;;3.63;;
21721;SDS011;11023;48.274;7.794;2023-09-08T03:20:22;5.25;;;3.63;;
21721;SDS011;11023;48.274;7.794;2023-09-08T03:22:47;5.32;;;3.47;;
21721;SDS011;11023;48.274;7.794;2023-09-08T03:25:13;5.93;;;3.63;;
21721;SDS011;11023;48.274;7.794;2023-09-08T03:27:40;6.97;;;4.15;;
21721;SDS011;11023;48.274;7.794;2023-09-08T03:30:06;5.57;;;3.40;;
21721;SDS011;11023;48.274;7.794;2023-09-08T03:32:32;6.03;;;3.88;;
21721;SDS011;11023;48.274;7.794;2023-09-08T03:34:58;6.95;;;3.83;;
21721;SDS011;11023;48.274;7.794;2023-09-08T03:37:23;5.35;;;3.72;;
21721;SDS011;11023;48.274;7.794;2023-09-08T03:39:51;6.93;;;4.10;;
21721;SDS011;11023;48.274;7.794;2023-09-08T03:42:17;10.05;;;4.60;;
21721;SDS011;11023;48.274;7.794;2023-09-08T03:44:43;7.00;;;4.22;;
21721;SDS011;11023;48.274;7.794;2023-09-08T03:47:08;6.53;;;4.30;;
21721;SDS011;11023;48.274;7.794;2023-09-08T03:49:34;7.63;;;4.35;;
21721;SDS011;11023;48.274;7.794;2023-09-08T03:51:59;5.63;;;3.65;;
21721;SDS011;11023;48.274;7.794;2023-09-08T03:54:25;6.63;;;3.55;;
21721;SDS011;11023;48.274;7.794;2023-09-08T03:56:51;6.10;;;3.90;;
21721;SDS011;11023;48.274;7.794;2023-09-08T03:59:16;4.80;;;3.45;;
21721;SDS011;11023;48.274;7.794;2023-09-08T04:01:42;6.13;;;3.75;;
21721;SDS011;11023;48.274;7.794;2023-09-08T04:04:07;6.40;;;3.83;;
21721;SDS011;11023;48.274;7.794;2023-09-08T04:06:33;7.35;;;4.18;;
21721;SDS011;11023;48.274;7.794;2023-09-08T04:08:59;4.78;;;3.72;;
21721;SDS011;11023;48.274;7.794;2023-09-08T04:11:25;6.60;;;3.72;;
21721;SDS011;11023;48.274;7.794;2023-09-08T04:13:51;5.10;;;3.72;;
21721;SDS011;11023;48.274;7.794;2023-09-08T04:16:17;5.10;;;3.53;;
21721;SDS011;11023;48.274;7.794;2023-09-08T04:18:42;6.32;;;4.00;;
21721;SDS011;11023;48.274;7.794;2023-09-08T04:21:08;6.30;;;4.13;;
21721;SDS011;11023;48.274;7.794;2023-09-08T04:23:34;7.15;;;3.70;;
21721;SDS011;11023;48.274;7.794;2023-09-08T04:25:59;6.50;;;3.92;;
21721;SDS011;11023;48.274;7.794;2023-09-08T04:28:25;11.40;;;3.95;;
21721;SDS011;11023;48.274;7.794;2023-09-08T04:30:51;6.65;;;3.88;;
21721;SDS011;11023;48.274;7.794;2023-09-08T04:33:17;8.70;;;3.80;;
21721;SDS011;11023;48.274;7.794;2023-09-08T04:35:43;5.15;;;3.65;;
21721;SDS011;11023;48.274;7.794;2023-09-08T04:38:08;6.72;;;3.47;;
21721;SDS011;11023;48.274;7.794;2023-09-08T04:40:34;7.93;;;3.42;;
21721;SDS011;11023;48.274;7.794;2023-09-08T04:43:00;7.55;;;3.67;;
21721;SDS011;11023;48.274;7.794;2023-09-08T04:45:25;6.50;;;3.78;;
21721;SDS011;11023;48.274;7.794;2023-09-08T04:47:51;6.20;;;4.00;;
21721;SDS011;11023;48.274;7.794;2023-09-08T04:50:17;5.82;;;3.83;;
21721;SDS011;11023;48.274;7.794;2023-09-08T04:52:42;6.97;;;4.30;;
21721;SDS011;11023;48.274;7.794;2023-09-08T04:55:09;7.40;;;4.25;;
21721;SDS011;11023;48.274;7.794;2023-09-08T04:57:34;6.68;;;4.55;;
21721;SDS011;11023;48.274;7.794;2023-09-08T05:00:01;7.43;;;4.60;;
21721;SDS011;11023;48.274;7.794;2023-09-08T05:02:27;10.23;;;4.95;;
21721;SDS011;11023;48.274;7.794;2023-09-08T05:04:52;7.38;;;4.35;;
21721;SDS011;11023;48.274;7.794;2023-09-08T05:07:18;8.18;;;4.78;;
21721;SDS011;11023;48.274;7.794;2023-09-08T05:09:44;7.70;;;4.47;;
21721;SDS011;11023;48.274;7.794;2023-09-08T05:12:10;9.57;;;4.65;;
21721;SDS011;11023;48.274;7.794;2023-09-08T05:14:35;8.88;;;4.68;;
21721;SDS011;11023;48.274;7.794;2023-09-08T05:17:01;6.97;;;4.45;;
21721;SDS011;11023;48.274;7.794;2023-09-08T05:19:27;9.63;;;5.30;;
21721;SDS011;11023;48.274;7.794;2023-09-08T05:21:53;9.27;;;5.18;;
21721;SDS011;11023;48.274;7.794;2023-09-08T05:24:20;7.10;;;4.40;;
21721;SDS011;11023;48.274;7.794;2023-09-08T05:26:46;7.85;;;4.70;;
21721;SDS011;11023;48.274;7.794;2023-09-08T05:29:12;8.88;;;4.75;;
21721;SDS011;11023;48.274;7.794;2023-09-08T05:31:38;8.48;;;5.18;;
21721;SDS011;11023;48.274;7.794;2023-09-08T05:34:03;6.68;;;4.68;;
21721;SDS011;11023;48.274;7.794;2023-09-08T05:36:29;8.48;;;4.30;;
21721;SDS011;11023;48.274;7.794;2023-09-08T05:38:56;6.07;;;3.97;;
21721;SDS011;11023;48.274;7.794;2023-09-08T05:41:21;6.47;;;3.53;;
21721;SDS011;11023;48.274;7.794;2023-09-08T05:43:47;7.63;;;4.18;;
21721;SDS011;11023;48.274;7.794;2023-09-08T05:46:13;5.85;;;3.45;;
21721;SDS011;11023;48.274;7.794;2023-09-08T05:48:38;6.13;;;3.80;;
21721;SDS011;11023;48.274;7.794;2023-09-08T05:51:04;4.43;;;3.47;;
21721;SDS011;11023;48.274;7.794;2023-09-08T05:53:31;7.00;;;4.05;;
21721;SDS011;11023;48.274;7.794;2023-09-08T05:55:57;7.03;;;4.03;;
21721;SDS011;11023;48.274;7.794;2023-09-08T05:58:23;6.22;;;3.47;;
21721;SDS011;11023;48.274;7.794;2023-09-08T06:00:52;7.63;;;4.40;;
21721;SDS011;11023;48.274;7.794;2023-09-08T06:03:18;8.25;;;4.55;;
21721;SDS011;11023;48.274;7.794;2023-09-08T06:05:44;9.07;;;4.68;;
21721;SDS011;11023;48.274;7.794;2023-09-08T06:08:10;6.75;;;4.05;;
21721;SDS011;11023;48.274;7.794;2023-09-08T06:10:35;7.82;;;4.38;;
21721;SDS011;11023;48.274;7.794;2023-09-08T06:13:02;7.97;;;4.72;;
21721;SDS011;11023;48.274;7.794;2023-09-08T06:15:28;6.80;;;4.18;;
21721;SDS011;11023;48.274;7.794;2023-09-08T06:17:54;10.05;;;4.70;;
21721;SDS011;11023;48.274;7.794;2023-09-08T06:20:19;8.38;;;4.82;;
21721;SDS011;11023;48.274;7.794;2023-09-08T06:22:46;8.27;;;5.18;;
21721;SDS011;11023;48.274;7.794;2023-09-08T06:25:12;8.95;;;5.10;;
21721;SDS011;11023;48.274;7.794;2023-09-08T06:27:38;8.25;;;4.78;;
21721;SDS011;11023;48.274;7.794;2023-09-08T06:30:04;8.70;;;4.30;;
21721;SDS011;11023;48.274;7.794;2023-09-08T06:32:30;8.32;;;4.63;;
21721;SDS011;11023;48.274;7.794;2023-09-08T06:34:55;8.25;;;4.32;;
21721;SDS011;11023;48.274;7.794;2023-09-08T06:37:21;8.02;;;4.50;;
21721;SDS011;11023;48.274;7.794;2023-09-08T06:39:47;6.82;;;4.53;;
21721;SDS011;11023;48.274;7.794;2023-09-08T06:42:13;6.65;;;3.80;;
21721;SDS011;11023;48.274;7.794;2023-09-08T06:44:38;7.78;;;4.85;;
21721;SDS011;11023;48.274;7.794;2023-09-08T06:47:04;8.68;;;4.43;;
21721;SDS011;11023;48.274;7.794;2023-09-08T06:49:32;7.07;;;3.80;;
21721;SDS011;11023;48.274;7.794;2023-09-08T06:51:57;7.07;;;4.35;;
21721;SDS011;11023;48.274;7.794;2023-09-08T06:54:23;8.50;;;4.35;;
21721;SDS011;11023;48.274;7.794;2023-09-08T06:56:49;9.00;;;3.78;;
21721;SDS011;11023;48.274;7.794;2023-09-08T06:59:15;8.02;;;4.60;;
21721;SDS011;11023;48.274;7.794;2023-09-08T07:01:41;7.72;;;4.82;;
21721;SDS011;11023;48.274;7.794;2023-09-08T07:04:07;6.00;;;4.22;;
21721;SDS011;11023;48.274;7.794;2023-09-08T07:06:33;8.50;;;4.47;;
21721;SDS011;11023;48.274;7.794;2023-09-08T07:09:00;10.70;;;5.00;;
21721;SDS011;11023;48.274;7.794;2023-09-08T07:11:26;10.20;;;5.40;;
21721;SDS011;11023;48.274;7.794;2023-09-08T07:13:51;14.95;;;5.55;;
21721;SDS011;11023;48.274;7.794;2023-09-08T07:16:17;9.18;;;5.45;;
21721;SDS011;11023;48.274;7.794;2023-09-08T07:18:43;8.85;;;5.30;;
21721;SDS011;11023;48.274;7.794;2023-09-08T07:21:08;6.10;;;4.70;;
21721;SDS011;11023;48.274;7.794;2023-09-08T07:23:34;9.10;;;5.05;;
21721;SDS011;11023;48.274;7.794;2023-09-08T07:26:01;6.63;;;4.45;;
21721;SDS011;11023;48.274;7.794;2023-09-08T07:28:27;7.65;;;5.15;;
21721;SDS011;11023;48.274;7.794;2023-09-08T07:30:53;12.52;;;4.93;;
21721;SDS011;11023;48.274;7.794;2023-09-08T07:33:18;6.78;;;4.65;;
21721;SDS011;11023;48.274;7.794;2023-09-08T07:35:44;6.97;;;5.00;;
21721;SDS011;11023;48.274;7.794;2023-09-08T07:38:10;8.25;;;4.93;;
21721;SDS011;11023;48.274;7.794;2023-09-08T07:40:37;6.82;;;4.18;;
21721;SDS011;11023;48.274;7.794;2023-09-08T07:43:03;6.65;;;4.45;;
21721;SDS011;11023;48.274;7.794;2023-09-08T07:45:28;7.45;;;4.55;;
21721;SDS011;11023;48.274;7.794;2023-09-08T07:47:54;6.78;;;4.45;;
21721;SDS011;11023;48.274;7.794;2023-09-08T07:50:21;8.18;;;4.68;;
21721;SDS011;11023;48.274;7.794;2023-09-08T07:52:49;7.32;;;4.30;;
21721;SDS011;11023;48.274;7.794;2023-09-08T07:55:16;7.80;;;4.55;;
21721;SDS011;11023;48.274;7.794;2023-09-08T07:57:42;6.55;;;4.30;;
21721;SDS011;11023;48.274;7.794;2023-09-08T08:00:11;6.50;;;4.30;;
21721;SDS011;11023;48.274;7.794;2023-09-08T08:02:41;8.40;;;4.65;;
21721;SDS011;11023;48.274;7.794;2023-09-08T08:05:08;6.03;;;4.43;;
21721;SDS011;11023;48.274;7.794;2023-09-08T08:07:34;8.88;;;4.93;;
21721;SDS011;11023;48.274;7.794;2023-09-08T08:09:59;7.18;;;4.38;;
21721;SDS011;11023;48.274;7.794;2023-09-08T08:12:25;6.18;;;4.32;;
21721;SDS011;11023;48.274;7.794;2023-09-08T08:14:51;5.95;;;4.38;;
21721;SDS011;11023;48.274;7.794;2023-09-08T08:17:17;8.70;;;5.18;;
21721;SDS011;11023;48.274;7.794;2023-09-08T08:19:44;11.60;;;5.15;;
21721;SDS011;11023;48.274;7.794;2023-09-08T08:22:10;9.57;;;5.20;;
21721;SDS011;11023;48.274;7.794;2023-09-08T08:24:36;7.85;;;4.55;;
21721;SDS011;11023;48.274;7.794;2023-09-08T08:27:01;8.00;;;4.45;;
21721;SDS011;11023;48.274;7.794;2023-09-08T08:29:28;6.75;;;4.40;;
21721;SDS011;11023;48.274;7.794;2023-09-08T08:31:54;9.02;;;4.75;;
21721;SDS011;11023;48.274;7.794;2023-09-08T08:34:20;8.25;;;4.32;;
21721;SDS011;11023;48.274;7.794;2023-09-08T08:36:46;10.98;;;4.20;;
21721;SDS011;11023;48.274;7.794;2023-09-08T08:39:12;6.03;;;4.40;;
21721;SDS011;11023;48.274;7.794;2023-09-08T08:41:40;6.75;;;4.82;;
21721;SDS011;11023;48.274;7.794;2023-09-08T08:44:06;7.47;;;4.75;;
21721;SDS011;11023;48.274;7.794;2023-09-08T08:46:33;6.63;;;4.40;;
21721;SDS011;11023;48.274;7.794;2023-09-08T08:49:02;5.22;;;3.72;;
21721;SDS011;11023;48.274;7.794;2023-09-08T08:51:30;5.60;;;4.40;;
21721;SDS011;11023;48.274;7.794;2023-09-08T08:53:56;6.30;;;4.20;;
21721;SDS011;11023;48.274;7.794;2023-09-08T08:56:22;7.18;;;4.20;;
21721;SDS011;11023;48.274;7.794;2023-09-08T08:58:49;5.70;;;4.00;;
21721;SDS011;11023;48.274;7.794;2023-09-08T09:01:17;6.13;;;3.88;;
21721;SDS011;11023;48.274;7.794;2023-09-08T09:03:46;7.03;;;4.05;;
21721;SDS011;11023;48.274;7.794;2023-09-08T09:06:15;6.40;;;4.00;;
21721;SDS011;11023;48.274;7.794;2023-09-08T09:08:43;6.70;;;4.15;;
21721;SDS011;11023;48.274;7.794;2023-09-08T09:11:09;6.05;;;4.05;;
21721;SDS011;11023;48.274;7.794;2023-09-08T09:13:35;6.45;;;4.00;;
21721;SDS011;11023;48.274;7.794;2023-09-08T09:16:02;7.18;;;4.15;;
21721;SDS011;11023;48.274;7.794;2023-09-08T09:18:31;7.28;;;4.15;;
21721;SDS011;11023;48.274;7.794;2023-09-08T09:21:01;7.35;;;3.90;;
21721;SDS011;11023;48.274;7.794;2023-09-08T09:23:34;6.90;;;4.20;;
21721;SDS011;11023;48.274;7.794;2023-09-08T09:26:00;6.03;;;3.83;;
21721;SDS011;11023;48.274;7.794;2023-09-08T09:28:29;6.47;;;3.65;;
21721;SDS011;11023;48.274;7.794;2023-09-08T09:30:55;6.20;;;4.15;;
21721;SDS011;11023;48.274;7.794;2023-09-08T09:33:21;8.02;;;4.28;;
21721;SDS011;11023;48.274;7.794;2023-09-08T09:35:49;4.55;;;3.75;;
21721;SDS011;11023;48.274;7.794;2023-09-08T09:38:16;6.28;;;3.90;;
21721;SDS011;11023;48.274;7.794;2023-09-08T09:40:46;5.30;;;3.90;;
21721;SDS011;11023;48.274;7.794;2023-09-08T09:43:13;5.53;;;4.05;;
21721;SDS011;11023;48.274;7.794;2023-09-08T09:45:40;6.78;;;4.35;;
21721;SDS011;11023;48.274;7.794;2023-09-08T09:48:07;5.93;;;4.22;;
21721;SDS011;11023;48.274;7.794;2023-09-08T09:50:35;9.05;;;3.80;;
21721;SDS011;11023;48.274;7.794;2023-09-08T09:53:03;5.65;;;4.00;;
21721;SDS011;11023;48.274;7.794;2023-09-08T09:55:33;5.78;;;4.03;;
21721;SDS011;11023;48.274;7.794;2023-09-08T09:58:01;5.72;;;4.28;;
21721;SDS011;11023;48.274;7.794;2023-09-08T10:00:29;7.78;;;4.13;;
21721;SDS011;11023;48.274;7.794;2023-09-08T10:02:58;6.63;;;4.65;;
21721;SDS011;11023;48.274;7.794;2023-09-08T10:05:24;5.50;;;3.88;;
21721;SDS011;11023;48.274;7.794;2023-09-08T10:07:51;6.15;;;4.32;;
21721;SDS011;11023;48.274;7.794;2023-09-08T10:10:17;9.80;;;3.95;;
21721;SDS011;11023;48.274;7.794;2023-09-08T10:12:45;6.43;;;3.70;;
21721;SDS011;11023;48.274;7.794;2023-09-08T10:15:15;5.60;;;4.28;;
21721;SDS011;11023;48.274;7.794;2023-09-08T10:17:44;6.53;;;4.28;;
21721;SDS011;11023;48.274;7.794;2023-09-08T10:20:17;6.45;;;3.97;;
21721;SDS011;11023;48.274;7.794;2023-09-08T10:22:46;6.32;;;4.07;;
21721;SDS011;11023;48.274;7.794;2023-09-08T10:25:21;6.05;;;3.42;;
21721;SDS011;11023;48.274;7.794;2023-09-08T10:27:50;5.28;;;3.90;;
21721;SDS011;11023;48.274;7.794;2023-09-08T10:30:16;5.47;;;3.88;;
21721;SDS011;11023;48.274;7.794;2023-09-08T10:32:45;4.55;;;3.75;;
21721;SDS011;11023;48.274;7.794;2023-09-08T10:35:12;5.55;;;3.80;;
21721;SDS011;11023;48.274;7.794;2023-09-08T10:37:38;5.13;;;3.90;;
21721;SDS011;11023;48.274;7.794;2023-09-08T10:40:24;4.78;;;3.83;;
21721;SDS011;11023;48.274;7.794;2023-09-08T10:43:07;8.48;;;4.20;;
21721;SDS011;11023;48.274;7.794;2023-09-08T10:45:34;6.60;;;4.30;;
21721;SDS011;11023;48.274;7.794;2023-09-08T10:47:59;4.43;;;3.50;;
21721;SDS011;11023;48.274;7.794;2023-09-08T10:50:27;4.55;;;3.58;;
21721;SDS011;11023;48.274;7.794;2023-09-08T10:55:42;5.40;;;3.95;;
21721;SDS011;11023;48.274;7.794;2023-09-08T10:58:34;6.25;;;3.95;;
21721;SDS011;11023;48.274;7.794;2023-09-08T11:01:02;5.35;;;3.80;;
21721;SDS011;11023;48.274;7.794;2023-09-08T11:06:04;6.20;;;3.65;;
21721;SDS011;11023;48.274;7.794;2023-09-08T11:08:32;5.05;;;3.70;;
21721;SDS011;11023;48.274;7.794;2023-09-08T11:10:58;6.68;;;4.07;;
21721;SDS011;11023;48.274;7.794;2023-09-08T11:13:25;5.05;;;4.00;;
21721;SDS011;11023;48.274;7.794;2023-09-08T11:15:53;5.88;;;3.75;;
21721;SDS011;11023;48.274;7.794;2023-09-08T11:18:31;5.97;;;4.05;;
21721;SDS011;11023;48.274;7.794;2023-09-08T11:20:59;9.20;;;3.88;;
21721;SDS011;11023;48.274;7.794;2023-09-08T11:23:36;9.43;;;4.25;;
21721;SDS011;11023;48.274;7.794;2023-09-08T11:26:02;9.60;;;4.32;;
21721;SDS011;11023;48.274;7.794;2023-09-08T11:28:27;5.03;;;3.45;;
21721;SDS011;11023;48.274;7.794;2023-09-08T11:30:53;8.32;;;3.50;;
21721;SDS011;11023;48.274;7.794;2023-09-08T11:33:21;5.00;;;3.40;;
21721;SDS011;11023;48.274;7.794;2023-09-08T11:35:49;8.10;;;3.53;;
21721;SDS011;11023;48.274;7.794;2023-09-08T11:38:24;6.22;;;3.50;;
21721;SDS011;11023;48.274;7.794;2023-09-08T11:40:51;7.07;;;3.53;;
21721;SDS011;11023;48.274;7.794;2023-09-08T11:43:18;4.13;;;3.25;;
21721;SDS011;11023;48.274;7.794;2023-09-08T11:45:44;4.40;;;3.00;;
21721;SDS011;11023;48.274;7.794;2023-09-08T11:48:10;4.78;;;3.22;;
21721;SDS011;11023;48.274;7.794;2023-09-08T11:50:35;3.83;;;3.13;;
21721;SDS011;11023;48.274;7.794;2023-09-08T11:53:01;4.10;;;3.17;;
21721;SDS011;11023;48.274;7.794;2023-09-08T11:55:27;5.13;;;3.50;;
21721;SDS011;11023;48.274;7.794;2023-09-08T11:57:54;6.95;;;3.75;;
21721;SDS011;11023;48.274;7.794;2023-09-08T12:00:22;4.75;;;3.72;;
21721;SDS011;11023;48.274;7.794;2023-09-08T12:02:50;5.72;;;3.40;;
21721;SDS011;11023;48.274;7.794;2023-09-08T12:07:53;4.13;;;3.33;;
21721;SDS011;11023;48.274;7.794;2023-09-08T12:10:21;4.93;;;3.47;;
21721;SDS011;11023;48.274;7.794;2023-09-08T12:12:48;5.95;;;3.40;;
21721;SDS011;11023;48.274;7.794;2023-09-08T12:18:04;4.22;;;3.42;;
21721;SDS011;11023;48.274;7.794;2023-09-08T12:20:31;5.00;;;2.90;;
21721;SDS011;11023;48.274;7.794;2023-09-08T12:22:59;3.97;;;2.88;;
21721;SDS011;11023;48.274;7.794;2023-09-08T12:25:26;4.75;;;2.22;;
21721;SDS011;11023;48.274;7.794;2023-09-08T12:28:01;3.03;;;2.45;;
21721;SDS011;11023;48.274;7.794;2023-09-08T12:30:28;4.60;;;3.47;;
21721;SDS011;11023;48.274;7.794;2023-09-08T12:32:58;5.03;;;3.63;;
21721;SDS011;11023;48.274;7.794;2023-09-08T12:35:26;3.40;;;2.95;;
21721;SDS011;11023;48.274;7.794;2023-09-08T12:38:03;3.97;;;2.92;;
21721;SDS011;11023;48.274;7.794;2023-09-08T12:40:31;5.97;;;2.85;;
21721;SDS011;11023;48.274;7.794;2023-09-08T12:43:00;7.32;;;2.78;;
21721;SDS011;11023;48.274;7.794;2023-09-08T12:45:27;4.38;;;2.58;;
21721;SDS011;11023;48.274;7.794;2023-09-08T12:47:53;4.43;;;2.20;;
21721;SDS011;11023;48.274;7.794;2023-09-08T12:50:23;4.00;;;2.60;;
21721;SDS011;11023;48.274;7.794;2023-09-08T12:52:50;4.22;;;2.30;;
21721;SDS011;11023;48.274;7.794;2023-09-08T12:55:15;3.22;;;2.75;;
21721;SDS011;11023;48.274;7.794;2023-09-08T12:57:41;6.07;;;3.10;;
21721;SDS011;11023;48.274;7.794;2023-09-08T13:00:07;3.08;;;2.50;;
21721;SDS011;11023;48.274;7.794;2023-09-08T13:02:33;3.60;;;2.45;;
21721;SDS011;11023;48.274;7.794;2023-09-08T13:04:59;3.50;;;2.53;;
21721;SDS011;11023;48.274;7.794;2023-09-08T13:07:28;4.72;;;2.30;;
21721;SDS011;11023;48.274;7.794;2023-09-08T13:09:53;3.85;;;3.00;;
21721;SDS011;11023;48.274;7.794;2023-09-08T13:12:19;2.88;;;2.28;;
21721;SDS011;11023;48.274;7.794;2023-09-08T13:14:45;4.07;;;3.05;;
21721;SDS011;11023;48.274;7.794;2023-09-08T13:17:11;4.45;;;2.65;;
21721;SDS011;11023;48.274;7.794;2023-09-08T13:19:38;5.40;;;2.75;;
21721;SDS011;11023;48.274;7.794;2023-09-08T13:22:04;3.08;;;2.53;;
21721;SDS011;11023;48.274;7.794;2023-09-08T13:24:32;4.55;;;2.58;;
21721;SDS011;11023;48.274;7.794;2023-09-08T13:26:59;3.75;;;2.83;;
21721;SDS011;11023;48.274;7.794;2023-09-08T13:29:25;3.85;;;2.90;;
21721;SDS011;11023;48.274;7.794;2023-09-08T13:31:55;4.50;;;2.88;;
21721;SDS011;11023;48.274;7.794;2023-09-08T13:34:21;3.33;;;2.47;;
21721;SDS011;11023;48.274;7.794;2023-09-08T13:36:47;3.85;;;2.50;;
21721;SDS011;11023;48.274;7.794;2023-09-08T13:39:13;3.42;;;2.88;;
21721;SDS011;11023;48.274;7.794;2023-09-08T13:44:15;3.45;;;2.70;;
21721;SDS011;11023;48.274;7.794;2023-09-08T13:46:42;8.70;;;2.97;;
21721;SDS011;11023;48.274;7.794;2023-09-08T13:49:08;4.47;;;2.78;;
21721;SDS011;11023;48.274;7.794;2023-09-08T13:51:34;5.05;;;2.60;;
21721;SDS011;11023;48.274;7.794;2023-09-08T13:53:59;4.75;;;2.97;;
21721;SDS011;11023;48.274;7.794;2023-09-08T13:56:25;4.20;;;3.00;;
21721;SDS011;11023;48.274;7.794;2023-09-08T13:58:51;3.78;;;2.60;;
21721;SDS011;11023;48.274;7.794;2023-09-08T14:01:17;4.57;;;2.80;;
21721;SDS011;11023;48.274;7.794;2023-09-08T14:03:51;4.30;;;2.90;;
21721;SDS011;11023;48.274;7.794;2023-09-08T14:06:20;4.60;;;2.40;;
21721;SDS011;11023;48.274;7.794;2023-09-08T14:08:47;5.50;;;2.88;;
21721;SDS011;11023;48.274;7.794;2023-09-08T14:11:12;4.57;;;2.40;;
21721;SDS011;11023;48.274;7.794;2023-09-08T14:13:38;3.38;;;2.78;;
21721;SDS011;11023;48.274;7.794;2023-09-08T14:16:04;5.25;;;3.00;;
21721;SDS011;11023;48.274;7.794;2023-09-08T14:18:30;3.55;;;2.63;;
21721;SDS011;11023;48.274;7.794;2023-09-08T14:20:55;4.53;;;3.00;;
21721;SDS011;11023;48.274;7.794;2023-09-08T14:23:21;4.82;;;3.17;;
21721;SDS011;11023;48.274;7.794;2023-09-08T14:25:47;6.72;;;3.40;;
21721;SDS011;11023;48.274;7.794;2023-09-08T14:28:12;3.63;;;2.70;;
21721;SDS011;11023;48.274;7.794;2023-09-08T14:30:38;3.85;;;2.53;;
21721;SDS011;11023;48.274;7.794;2023-09-08T14:33:05;2.92;;;2.63;;
21721;SDS011;11023;48.274;7.794;2023-09-08T14:35:31;3.20;;;2.90;;
21721;SDS011;11023;48.274;7.794;2023-09-08T14:37:58;3.72;;;2.83;;
21721;SDS011;11023;48.274;7.794;2023-09-08T14:40:24;2.75;;;2.42;;
21721;SDS011;11023;48.274;7.794;2023-09-08T14:42:49;3.45;;;2.58;;
21721;SDS011;11023;48.274;7.794;2023-09-08T14:45:15;2.97;;;2.42;;
21721;SDS011;11023;48.274;7.794;2023-09-08T14:47:41;4.75;;;2.80;;
21721;SDS011;11023;48.274;7.794;2023-09-08T14:50:07;5.97;;;2.55;;
21721;SDS011;11023;48.274;7.794;2023-09-08T14:52:33;4.05;;;2.85;;
21721;SDS011;11023;48.274;7.794;2023-09-08T14:55:00;5.20;;;2.80;;
21721;SDS011;11023;48.274;7.794;2023-09-08T14:57:26;3.80;;;2.70;;
21721;SDS011;11023;48.274;7.794;2023-09-08T14:59:51;3.78;;;2.70;;
21721;SDS011;11023;48.274;7.794;2023-09-08T15:02:20;5.88;;;3.20;;